createdAt,value
2023-02-07T00:01:16.941Z,36.08
2023-02-07T00:03:45.517Z,35.72
2023-02-07T00:06:16.758Z,45.80
2023-02-07T00:08:44.747Z,45.63
2023-02-07T00:11:16.620Z,44.22
2023-02-07T00:13:45.704Z,40.50
2023-02-07T00:16:13.641Z,40.85
2023-02-07T00:18:41.257Z,46.75
2023-02-07T00:21:15.104Z,45.20
2023-02-07T00:23:43.634Z,42.00
2023-02-07T00:26:12.980Z,48.83
2023-02-07T00:28:43.679Z,49.47
2023-02-07T00:31:23.270Z,46.40
2023-02-07T00:33:52.229Z,45.20
2023-02-07T00:36:22.991Z,43.22
2023-02-07T00:38:51.738Z,45.80
2023-02-07T00:41:20.037Z,43.03
2023-02-07T00:43:48.431Z,44.20
2023-02-07T00:46:16.470Z,37.80
2023-02-07T00:48:44.421Z,36.97
2023-02-07T00:51:13.851Z,38.42
2023-02-07T00:53:41.620Z,35.28
2023-02-07T00:56:09.433Z,35.40
2023-02-07T00:58:37.427Z,36.70
2023-02-07T01:01:06.686Z,37.97
2023-02-07T01:03:34.257Z,34.88
2023-02-07T01:06:01.888Z,34.35
2023-02-07T01:08:29.517Z,36.85
2023-02-07T01:11:02.998Z,37.00
2023-02-07T01:13:31.147Z,35.60
2023-02-07T01:15:59.959Z,39.85
2023-02-07T01:18:29.025Z,42.72
2023-02-07T01:20:56.566Z,35.72
2023-02-07T01:23:24.036Z,36.38
2023-02-07T01:25:51.512Z,36.50
2023-02-07T01:28:19.126Z,36.20
2023-02-07T01:30:47.564Z,37.40
2023-02-07T01:33:15.192Z,35.67
2023-02-07T01:35:46.677Z,37.38
2023-02-07T01:38:14.223Z,31.77
2023-02-07T01:40:41.822Z,33.35
2023-02-07T01:43:19.013Z,38.33
2023-02-07T01:45:46.496Z,36.78
2023-02-07T01:48:23.949Z,34.95
2023-02-07T01:50:53.634Z,34.50
2023-02-07T01:53:24.319Z,33.35
2023-02-07T01:55:55.492Z,38.53
2023-02-07T01:58:23.809Z,29.95
2023-02-07T02:00:52.191Z,34.35
2023-02-07T02:03:19.781Z,39.28
2023-02-07T02:05:47.600Z,34.67
2023-02-07T02:08:15.812Z,35.65
2023-02-07T02:11:01.784Z,34.83
2023-02-07T02:13:58.499Z,35.25
2023-02-07T02:16:40.161Z,35.95
2023-02-07T02:19:10.279Z,39.30
2023-02-07T02:22:05.749Z,34.78
2023-02-07T02:24:44.913Z,36.22
2023-02-07T02:28:07.145Z,33.30
2023-02-07T02:31:08.572Z,32.95
2023-02-07T02:33:43.201Z,38.30
2023-02-07T02:36:28.750Z,35.95
2023-02-07T02:39:12.180Z,34.53
2023-02-07T02:42:00.563Z,37.60
2023-02-07T02:44:47.323Z,35.80
2023-02-07T02:47:15.917Z,33.75
2023-02-07T02:49:44.766Z,30.85
2023-02-07T02:52:12.340Z,30.20
2023-02-07T02:54:41.833Z,30.45
2023-02-07T02:57:24.627Z,31.58
2023-02-07T03:00:11.025Z,35.05
2023-02-07T03:03:20.373Z,34.88
2023-02-07T03:06:08.986Z,33.80
2023-02-07T03:08:37.022Z,28.20
2023-02-07T03:11:17.418Z,34.53
2023-02-07T03:14:04.463Z,33.22
2023-02-07T03:17:06.479Z,35.75
2023-02-07T03:19:58.763Z,34.65
2023-02-07T03:22:28.821Z,38.58
2023-02-07T03:25:00.867Z,32.35
2023-02-07T03:27:32.180Z,36.15
2023-02-07T03:30:04.176Z,43.05
2023-02-07T03:32:37.680Z,41.08
2023-02-07T03:35:19.987Z,38.70
2023-02-07T03:37:55.022Z,36.55
2023-02-07T03:40:26.653Z,39.47
2023-02-07T03:43:02.313Z,42.33
2023-02-07T03:45:30.491Z,40.10
2023-02-07T03:47:57.968Z,39.22
2023-02-07T03:50:25.471Z,41.13
2023-02-07T03:52:53.110Z,38.63
2023-02-07T03:55:20.672Z,34.15
2023-02-07T03:57:48.084Z,38.67
2023-02-07T04:00:16.006Z,36.22
2023-02-07T04:02:43.672Z,34.55
2023-02-07T04:05:11.674Z,33.83
2023-02-07T04:07:39.447Z,32.15
2023-02-07T04:10:07.470Z,39.20
2023-02-07T04:12:35.046Z,34.85
2023-02-07T04:15:04.719Z,36.35
2023-02-07T04:17:32.886Z,35.75
2023-02-07T04:20:01.853Z,39.58
2023-02-07T04:22:30.069Z,34.72
2023-02-07T04:24:57.933Z,35.65
2023-02-07T04:27:25.971Z,37.58
2023-02-07T04:29:53.455Z,35.50
2023-02-07T04:32:20.942Z,41.35
2023-02-07T04:34:48.653Z,32.58
2023-02-07T04:37:16.116Z,36.35
2023-02-07T04:39:43.585Z,34.70
2023-02-07T04:42:11.085Z,30.70
2023-02-07T04:44:38.521Z,40.72
2023-02-07T04:47:06.059Z,28.38
2023-02-07T04:49:34.646Z,36.53
2023-02-07T04:52:02.516Z,32.30
2023-02-07T04:54:29.998Z,36.63
2023-02-07T04:56:57.551Z,35.58
2023-02-07T04:59:25.032Z,39.92
2023-02-07T05:01:52.559Z,43.17
2023-02-07T05:04:20.086Z,40.13
2023-02-07T05:06:47.930Z,35.85
2023-02-07T05:09:15.524Z,29.73
2023-02-07T05:11:43.020Z,27.02
2023-02-07T05:14:10.699Z,27.17
2023-02-07T05:16:38.320Z,32.60
2023-02-07T05:19:05.907Z,29.85
2023-02-07T05:21:33.404Z,25.35
2023-02-07T05:24:00.987Z,27.95
2023-02-07T05:26:28.602Z,30.83
2023-02-07T05:28:56.086Z,33.20
2023-02-07T05:31:43.705Z,28.95
2023-02-07T05:34:11.314Z,31.20
2023-02-07T05:36:38.789Z,33.95
2023-02-07T05:42:55.301Z,29.25
2023-02-07T05:45:22.867Z,22.52
2023-02-07T05:47:50.482Z,25.90
2023-02-07T05:50:18.050Z,24.90
2023-02-07T05:52:45.607Z,25.88
2023-02-07T05:55:13.691Z,22.95
2023-02-07T05:57:43.061Z,26.42
2023-02-07T06:00:13.157Z,26.77
2023-02-07T06:02:41.354Z,26.73
2023-02-07T06:05:14.262Z,31.95
2023-02-07T06:07:41.795Z,30.98
2023-02-07T06:10:09.839Z,31.95
2023-02-07T06:12:37.409Z,32.67
2023-02-07T06:15:06.099Z,31.13
2023-02-07T06:17:33.708Z,28.30
2023-02-07T06:20:01.124Z,23.42
2023-02-07T06:22:28.763Z,26.10
2023-02-07T06:24:56.167Z,25.10
2023-02-07T06:27:24.964Z,23.90
2023-02-07T06:29:52.417Z,24.83
2023-02-07T06:32:20.000Z,21.73
2023-02-07T06:34:47.525Z,22.13
2023-02-07T06:37:15.081Z,22.98
2023-02-07T06:39:42.564Z,27.73
2023-02-07T06:42:10.159Z,20.85
2023-02-07T06:44:37.681Z,17.63
2023-02-07T06:47:05.606Z,26.65
2023-02-07T06:49:33.081Z,19.58
2023-02-07T06:52:00.639Z,18.23
2023-02-07T06:54:28.349Z,18.98
2023-02-07T06:56:55.943Z,20.42
2023-02-07T06:59:23.391Z,21.58
2023-02-07T07:01:50.955Z,23.80
2023-02-07T07:04:18.771Z,20.90
2023-02-07T07:06:47.193Z,16.77
2023-02-07T07:09:14.696Z,19.00
2023-02-07T07:11:44.082Z,24.40
2023-02-07T07:14:12.587Z,23.70
2023-02-07T07:16:43.201Z,25.63
2023-02-07T07:19:10.716Z,24.02
2023-02-07T07:21:38.247Z,28.85
2023-02-07T07:24:06.291Z,34.00
2023-02-07T07:26:48.428Z,36.47
2023-02-07T07:29:21.472Z,28.42
2023-02-07T07:31:49.204Z,25.90
2023-02-07T07:34:17.364Z,25.20
2023-02-07T07:36:44.950Z,25.30
2023-02-07T07:39:13.371Z,22.10
2023-02-07T07:41:40.869Z,26.13
2023-02-07T07:44:14.349Z,19.55
2023-02-07T07:46:41.953Z,20.63
2023-02-07T07:49:09.894Z,24.05
2023-02-07T07:51:37.464Z,23.77
2023-02-07T07:54:05.268Z,21.95
2023-02-07T07:56:32.980Z,21.70
2023-02-07T07:59:05.846Z,22.02
2023-02-07T08:01:36.418Z,20.52
2023-02-07T08:04:04.273Z,19.67
2023-02-07T08:06:32.740Z,18.95
2023-02-07T08:09:00.187Z,34.42
2023-02-07T08:11:27.687Z,35.58
2023-02-07T08:13:55.188Z,31.17
2023-02-07T08:16:22.926Z,21.63
2023-02-07T08:18:50.408Z,18.92
2023-02-07T08:21:18.041Z,17.70
2023-02-07T08:23:45.800Z,19.30
2023-02-07T08:26:13.681Z,19.17
2023-02-07T08:28:41.181Z,21.15
2023-02-07T08:31:08.842Z,20.63
2023-02-07T08:33:36.423Z,23.23
2023-02-07T08:36:08.357Z,21.65
2023-02-07T08:38:35.917Z,22.35
2023-02-07T08:41:03.957Z,24.67
2023-02-07T08:43:31.680Z,22.02
2023-02-07T08:46:00.820Z,21.17
2023-02-07T08:48:28.497Z,19.67
2023-02-07T08:50:56.092Z,22.98
2023-02-07T08:53:23.572Z,20.85
2023-02-07T08:55:51.584Z,22.25
2023-02-07T08:58:19.071Z,22.30
2023-02-07T09:00:46.726Z,19.77
2023-02-07T09:03:15.379Z,21.33
2023-02-07T09:05:42.925Z,21.40
2023-02-07T09:08:10.555Z,19.58
2023-02-07T09:10:38.526Z,21.95
2023-02-07T09:13:06.221Z,22.85
2023-02-07T09:15:33.706Z,22.45
2023-02-07T09:18:01.220Z,21.25
2023-02-07T09:20:28.726Z,20.98
2023-02-07T09:23:15.017Z,22.63
2023-02-07T09:25:42.917Z,20.25
2023-02-07T09:28:10.488Z,24.50
2023-02-07T09:30:40.804Z,23.65
2023-02-07T09:33:09.089Z,17.73
2023-02-07T09:35:40.908Z,21.83
2023-02-07T09:38:12.899Z,20.23
2023-02-07T09:40:41.784Z,22.52
2023-02-07T09:43:47.950Z,22.23
2023-02-07T09:46:28.971Z,24.70
2023-02-07T09:49:10.994Z,23.63
2023-02-07T09:51:41.296Z,18.60
2023-02-07T09:54:33.274Z,24.73
2023-02-07T09:57:05.801Z,24.88
2023-02-07T09:59:43.078Z,25.63
2023-02-07T10:02:57.452Z,23.38
2023-02-07T10:05:35.031Z,24.58
2023-02-07T10:08:02.667Z,25.38
2023-02-07T10:11:04.250Z,30.83
2023-02-07T10:13:34.696Z,27.92
2023-02-07T10:16:23.492Z,29.05
2023-02-07T10:18:58.109Z,23.52
2023-02-07T10:21:49.510Z,30.48
2023-02-07T10:24:44.541Z,22.58
2023-02-07T10:27:16.009Z,28.02
2023-02-07T10:30:04.734Z,24.35
2023-02-07T10:32:37.256Z,24.77
2023-02-07T10:35:17.866Z,27.63
2023-02-07T10:37:48.349Z,26.92
2023-02-07T10:40:26.389Z,25.38
2023-02-07T10:43:05.935Z,29.98
2023-02-07T10:45:33.598Z,29.73
2023-02-07T10:48:01.060Z,34.28
2023-02-07T10:50:30.526Z,30.45
2023-02-07T10:52:59.821Z,31.73
2023-02-07T10:55:50.787Z,35.08
2023-02-07T10:58:24.344Z,30.02
2023-02-07T11:03:23.710Z,31.40
2023-02-07T11:06:04.385Z,33.42
2023-02-07T11:08:34.582Z,28.40
2023-02-07T11:11:20.640Z,29.05
2023-02-07T11:13:51.857Z,22.92
2023-02-07T11:16:22.176Z,29.50
2023-02-07T11:19:04.230Z,31.67
2023-02-07T11:21:34.668Z,32.05
2023-02-07T11:24:06.890Z,34.33
2023-02-07T11:26:40.372Z,34.22
2023-02-07T11:31:38.052Z,30.73
2023-02-07T11:34:25.550Z,38.35
2023-02-07T11:36:53.649Z,36.85
2023-02-07T11:39:23.780Z,35.25
2023-02-07T11:42:01.955Z,37.83
2023-02-07T11:44:31.014Z,34.67
2023-02-07T11:47:03.611Z,35.42
2023-02-07T11:49:44.341Z,38.67
2023-02-07T11:52:12.990Z,37.20
2023-02-07T11:54:43.133Z,44.65
2023-02-07T11:57:15.522Z,37.70
2023-02-07T12:00:06.817Z,33.35
2023-02-07T12:02:51.940Z,37.80
2023-02-07T12:05:24.676Z,34.53
2023-02-07T12:08:17.717Z,33.77
2023-02-07T12:10:49.661Z,39.10
2023-02-07T12:13:21.472Z,30.95
2023-02-07T12:15:59.410Z,31.95
2023-02-07T12:18:33.181Z,29.25
2023-02-07T12:21:27.023Z,34.05
2023-02-07T12:23:56.736Z,29.00
2023-02-07T12:26:31.795Z,30.52
2023-02-07T12:29:32.963Z,26.23
2023-02-07T12:32:27.459Z,24.83
2023-02-07T12:35:11.463Z,23.20
2023-02-07T12:38:13.036Z,18.85
2023-02-07T12:40:48.144Z,22.13
2023-02-07T12:43:24.708Z,24.45
2023-02-07T12:46:15.569Z,23.73
2023-02-07T12:48:49.044Z,24.15
2023-02-07T12:51:29.561Z,24.65
2023-02-07T12:54:08.357Z,22.58
2023-02-07T12:57:00.410Z,24.67
2023-02-07T12:59:52.251Z,24.63
2023-02-07T13:02:59.377Z,19.98
2023-02-07T13:05:57.610Z,27.70
2023-02-07T13:08:52.646Z,23.65
2023-02-07T13:11:51.310Z,26.42
2023-02-07T13:14:30.985Z,24.52
2023-02-07T13:17:22.562Z,24.00
2023-02-07T13:20:25.780Z,22.48
2023-02-07T13:23:03.012Z,24.40
2023-02-07T13:25:35.692Z,21.52
2023-02-07T13:28:32.201Z,23.63
2023-02-07T13:31:01.337Z,24.58
2023-02-07T13:33:36.899Z,27.38
2023-02-07T13:36:38.878Z,25.23
2023-02-07T13:40:01.950Z,22.23
2023-02-07T13:42:47.877Z,24.80
2023-02-07T13:45:26.952Z,26.30
2023-02-07T13:48:02.274Z,27.63
2023-02-07T13:50:48.369Z,31.80
2023-02-07T13:53:33.610Z,27.80
2023-02-07T13:56:30.328Z,25.08
2023-02-07T13:59:16.719Z,28.25
2023-02-07T14:01:58.306Z,33.00
2023-02-07T14:04:45.462Z,31.45
2023-02-07T14:07:23.382Z,26.48
2023-02-07T14:09:51.173Z,31.52
2023-02-07T14:12:26.551Z,31.00
2023-02-07T14:15:02.594Z,31.35
2023-02-07T14:17:30.612Z,34.13
2023-02-07T14:19:59.943Z,32.28
2023-02-07T14:22:31.396Z,30.85
2023-02-07T14:24:59.124Z,29.60
2023-02-07T14:27:29.524Z,33.40
2023-02-07T14:30:10.202Z,35.85
2023-02-07T14:33:13.298Z,29.38
2023-02-07T14:36:14.834Z,28.80
2023-02-07T14:38:46.240Z,30.27
2023-02-07T14:41:15.479Z,32.40
2023-02-07T14:44:07.423Z,33.63
2023-02-07T14:46:41.014Z,29.02
2023-02-07T14:49:19.851Z,28.90
2023-02-07T14:51:51.177Z,31.17
2023-02-07T14:54:46.775Z,38.67
2023-02-07T14:57:43.963Z,49.47
2023-02-07T15:00:14.431Z,43.20
2023-02-07T15:02:51.736Z,39.33
2023-02-07T15:05:22.092Z,38.85
2023-02-07T15:07:56.745Z,37.65
2023-02-07T15:10:28.641Z,35.63
2023-02-07T15:12:57.014Z,40.20
2023-02-07T15:15:59.544Z,37.75
2023-02-07T15:18:30.804Z,38.55
2023-02-07T15:21:02.088Z,40.08
2023-02-07T15:23:32.044Z,46.90
2023-02-07T15:26:08.378Z,43.22
2023-02-07T15:28:36.150Z,44.63
2023-02-07T15:31:11.532Z,48.08
2023-02-07T15:33:48.322Z,50.28
2023-02-07T15:36:37.630Z,61.05
2023-02-07T15:39:08.389Z,52.22
2023-02-07T15:41:35.981Z,51.58
2023-02-07T15:44:07.475Z,47.33
2023-02-07T15:46:58.926Z,43.78
2023-02-07T15:49:29.124Z,45.97
2023-02-07T15:52:26.702Z,44.20
2023-02-07T15:54:55.534Z,51.25
2023-02-07T15:57:28.566Z,43.83
2023-02-07T16:00:02.342Z,53.13
2023-02-07T16:02:47.603Z,48.33
2023-02-07T16:05:27.595Z,50.10
2023-02-07T16:07:56.364Z,46.28
2023-02-07T16:10:23.767Z,41.55
2023-02-07T16:13:19.264Z,47.20
2023-02-07T16:15:57.161Z,43.00
2023-02-07T16:18:46.590Z,52.22
2023-02-07T16:21:24.000Z,46.10
2023-02-07T16:23:57.117Z,49.47
2023-02-07T16:26:26.212Z,48.55
2023-02-07T16:28:53.860Z,51.92
2023-02-07T16:31:21.590Z,48.53
2023-02-07T16:33:49.187Z,43.47
2023-02-07T16:36:18.623Z,43.42
2023-02-07T16:38:46.440Z,46.30
2023-02-07T16:41:31.429Z,52.50
2023-02-07T16:44:01.450Z,50.78
2023-02-07T16:46:30.043Z,54.97
2023-02-07T16:48:57.553Z,54.55
2023-02-07T16:51:25.125Z,59.83
2023-02-07T16:53:52.626Z,55.25
2023-02-07T16:56:27.587Z,59.22
2023-02-07T16:58:55.223Z,56.83
2023-02-07T17:01:22.938Z,56.00
2023-02-07T17:03:50.614Z,54.55
2023-02-07T17:06:20.592Z,53.88
2023-02-07T17:08:49.717Z,59.25
2023-02-07T17:11:25.318Z,57.15
2023-02-07T17:13:56.169Z,60.60
2023-02-07T17:16:25.154Z,53.80
2023-02-07T17:18:53.657Z,58.03
2023-02-07T17:21:22.486Z,54.75
2023-02-07T17:23:50.361Z,56.97
2023-02-07T17:26:28.600Z,62.05
2023-02-07T17:28:56.212Z,56.35
2023-02-07T17:31:24.239Z,63.65
2023-02-07T17:33:52.036Z,62.47
2023-02-07T17:36:20.079Z,62.67
2023-02-07T17:38:47.693Z,54.83
2023-02-07T17:41:15.986Z,59.53
2023-02-07T17:43:43.491Z,60.70
2023-02-07T17:46:23.044Z,57.78
2023-02-07T17:48:52.208Z,58.42
2023-02-07T17:51:22.381Z,57.47
2023-02-07T17:53:50.929Z,64.03
2023-02-07T17:56:31.329Z,59.65
2023-02-07T17:59:02.709Z,56.70
2023-02-07T18:01:31.673Z,58.92
2023-02-07T18:03:59.604Z,64.97
2023-02-07T18:06:29.004Z,59.10
2023-02-07T18:08:58.856Z,58.78
2023-02-07T18:11:30.601Z,59.47
2023-02-07T18:13:58.145Z,65.07
2023-02-07T18:16:26.790Z,64.78
2023-02-07T18:18:56.761Z,65.07
2023-02-07T18:21:24.624Z,54.75
2023-02-07T18:23:55.219Z,62.88
2023-02-07T18:26:23.466Z,57.70
2023-02-07T18:28:51.000Z,56.45
2023-02-07T18:31:23.087Z,56.30
2023-02-07T18:33:52.084Z,56.90
2023-02-07T18:36:21.889Z,55.50
2023-02-07T18:38:49.552Z,54.83
2023-02-07T18:41:23.537Z,57.30
2023-02-07T18:43:51.703Z,50.58
2023-02-07T18:46:20.649Z,55.97
2023-02-07T18:48:51.349Z,59.38
2023-02-07T18:51:19.672Z,60.70
2023-02-07T18:53:47.384Z,57.33
2023-02-07T18:56:20.650Z,60.00
2023-02-07T18:58:49.033Z,58.45
2023-02-07T19:01:21.761Z,61.55
2023-02-07T19:03:58.549Z,62.03
2023-02-07T19:06:30.139Z,60.80
2023-02-07T19:08:57.927Z,59.08
2023-02-07T19:11:26.698Z,63.05
2023-02-07T19:13:55.217Z,60.85
2023-02-07T19:16:24.604Z,58.08
2023-02-07T19:18:52.447Z,57.85
2023-02-07T19:21:26.927Z,59.83
2023-02-07T19:23:56.437Z,64.05
2023-02-07T19:26:25.303Z,63.58
2023-02-07T19:28:53.404Z,66.72
2023-02-07T19:31:21.814Z,62.83
2023-02-07T19:33:50.676Z,61.08
2023-02-07T19:36:19.540Z,64.53
2023-02-07T19:38:48.830Z,61.90
2023-02-07T19:41:19.318Z,67.80
2023-02-07T19:43:47.470Z,60.35
2023-02-07T19:46:15.398Z,63.78
2023-02-07T19:48:43.943Z,65.32
2023-02-07T19:51:16.127Z,63.22
2023-02-07T19:53:45.389Z,63.35
2023-02-07T19:56:14.393Z,63.88
2023-02-07T19:58:47.783Z,67.20
2023-02-07T20:01:16.421Z,67.60
2023-02-07T20:03:44.725Z,61.70
2023-02-07T20:06:14.025Z,61.78
2023-02-07T20:08:41.713Z,56.83
2023-02-07T20:11:12.582Z,64.53
2023-02-07T20:13:43.469Z,58.92
2023-02-07T20:16:14.774Z,59.05
2023-02-07T20:18:43.079Z,61.78
2023-02-07T20:21:14.906Z,54.85
2023-02-07T20:23:44.395Z,56.05
2023-02-07T20:26:15.288Z,55.10
2023-02-07T20:28:43.369Z,50.33
2023-02-07T20:31:14.089Z,50.30
2023-02-07T20:33:43.213Z,50.28
2023-02-07T20:36:13.010Z,52.30
2023-02-07T20:38:41.083Z,48.33
2023-02-07T20:41:14.406Z,49.25
2023-02-07T20:43:43.156Z,45.15
2023-02-07T20:46:13.112Z,49.10
2023-02-07T20:48:41.523Z,54.75
2023-02-07T20:51:10.663Z,48.63
2023-02-07T20:53:43.108Z,49.83
2023-02-07T20:56:13.736Z,50.20
2023-02-07T20:58:41.283Z,52.30
2023-02-07T21:01:11.027Z,47.78
2023-02-07T21:03:39.463Z,62.10
2023-02-07T21:06:08.564Z,58.03
2023-02-07T21:08:37.866Z,57.00
2023-02-07T21:11:06.683Z,56.50
2023-02-07T21:13:35.254Z,48.92
2023-02-07T21:16:04.003Z,58.83
2023-02-07T21:18:34.131Z,58.42
2023-02-07T21:21:06.989Z,58.53
2023-02-07T21:23:35.336Z,55.08
2023-02-07T21:26:05.502Z,60.60
2023-02-07T21:28:33.554Z,72.55
2023-02-07T21:31:13.566Z,61.05
2023-02-07T21:33:41.597Z,57.33
2023-02-07T21:36:12.221Z,57.05
2023-02-07T21:38:41.150Z,58.08
2023-02-07T21:41:10.707Z,61.30
2023-02-07T21:43:40.432Z,65.93
2023-02-07T21:46:10.610Z,60.53
2023-02-07T21:48:39.434Z,56.05
2023-02-07T21:51:12.290Z,57.85
2023-02-07T21:53:40.430Z,52.97
2023-02-07T21:56:11.514Z,53.08
2023-02-07T21:58:40.333Z,64.72
2023-02-07T22:01:11.402Z,67.20
2023-02-07T22:03:42.041Z,62.53
2023-02-07T22:06:10.547Z,58.25
2023-02-07T22:08:38.877Z,63.88
2023-02-07T22:11:12.096Z,55.67
2023-02-07T22:13:42.341Z,56.00
2023-02-07T22:16:11.948Z,56.72
2023-02-07T22:18:39.963Z,60.28
2023-02-07T22:21:29.444Z,61.83
2023-02-07T22:23:58.486Z,55.95
2023-02-07T22:26:27.380Z,53.28
2023-02-07T22:28:55.831Z,52.60
2023-02-07T22:31:26.198Z,50.90
2023-02-07T22:33:55.607Z,42.72
2023-02-07T22:36:28.540Z,48.97
2023-02-07T22:38:57.829Z,48.53
2023-02-07T22:41:25.260Z,51.88
2023-02-07T22:43:52.745Z,54.33
2023-02-07T22:46:22.542Z,56.60
2023-02-07T22:48:51.570Z,62.75
2023-02-07T22:51:34.246Z,63.33
2023-02-07T22:54:07.106Z,66.13
2023-02-07T22:56:36.850Z,60.30
2023-02-07T22:59:05.084Z,74.03
2023-02-07T23:01:35.587Z,68.75
2023-02-07T23:04:04.662Z,63.78
2023-02-07T23:06:32.787Z,66.85
2023-02-07T23:09:00.466Z,68.00
2023-02-07T23:11:28.045Z,65.15
2023-02-07T23:13:55.594Z,60.75
2023-02-07T23:16:25.525Z,58.03
2023-02-07T23:18:58.290Z,56.83
2023-02-07T23:21:26.978Z,56.27
2023-02-07T23:23:54.720Z,55.10
2023-02-07T23:26:23.928Z,52.65
2023-02-07T23:28:52.380Z,58.03
2023-02-07T23:31:21.662Z,54.97
2023-02-07T23:33:50.162Z,59.75
2023-02-07T23:36:18.052Z,57.95
2023-02-07T23:38:47.028Z,67.63
2023-02-07T23:41:15.505Z,70.18
2023-02-07T23:43:43.235Z,68.35
2023-02-07T23:46:12.110Z,67.70
2023-02-07T23:48:39.589Z,63.85
2023-02-07T23:51:07.504Z,77.60
2023-02-07T23:53:35.375Z,72.85
2023-02-07T23:56:04.720Z,66.18
2023-02-07T23:58:32.971Z,71.00
